sensor_id;sensor_type;location;lat;lon;timestamp;P1;durP1;ratioP1;P2;durP2;ratioP2
13057;SDS011;6595;49.578;11.012;2024-03-25T00:00:23;6.7;;;3.7;;
13057;SDS011;6595;49.578;11.012;2024-03-25T00:02:24;6.0;;;3.8;;
13057;SDS011;6595;49.578;11.012;2024-03-25T00:04:23;6.0;;;3.8;;
13057;SDS011;6595;49.578;11.012;2024-03-25T00:06:23;6.9;;;3.9;;
13057;SDS011;6595;49.578;11.012;2024-03-25T00:08:23;7.9;;;4.3;;
13057;SDS011;6595;49.578;11.012;2024-03-25T00:10:24;7.3;;;3.9;;
13057;SDS011;6595;49.578;11.012;2024-03-25T00:12:23;7.3;;;3.9;;
13057;SDS011;6595;49.578;11.012;2024-03-25T00:14:23;7.3;;;3.9;;
13057;SDS011;6595;49.578;11.012;2024-03-25T00:16:24;7.2;;;4.0;;
13057;SDS011;6595;49.578;11.012;2024-03-25T00:18:23;6.8;;;3.6;;
13057;SDS011;6595;49.578;11.012;2024-03-25T00:20:23;8.1;;;4.2;;
13057;SDS011;6595;49.578;11.012;2024-03-25T00:22:24;8.1;;;4.2;;
13057;SDS011;6595;49.578;11.012;2024-03-25T00:24:24;6.2;;;3.8;;
13057;SDS011;6595;49.578;11.012;2024-03-25T00:26:23;6.4;;;3.5;;
13057;SDS011;6595;49.578;11.012;2024-03-25T00:28:23;9.1;;;4.1;;
13057;SDS011;6595;49.578;11.012;2024-03-25T00:30:23;9.1;;;4.1;;
13057;SDS011;6595;49.578;11.012;2024-03-25T00:32:23;5.0;;;3.7;;
13057;SDS011;6595;49.578;11.012;2024-03-25T00:34:23;6.8;;;3.8;;
13057;SDS011;6595;49.578;11.012;2024-03-25T00:36:23;6.4;;;3.7;;
13057;SDS011;6595;49.578;11.012;2024-03-25T00:38:23;6.4;;;3.7;;
13057;SDS011;6595;49.578;11.012;2024-03-25T00:40:23;8.8;;;3.9;;
13057;SDS011;6595;49.578;11.012;2024-03-25T00:42:23;6.6;;;3.7;;
13057;SDS011;6595;49.578;11.012;2024-03-25T00:44:24;6.7;;;4.0;;
13057;SDS011;6595;49.578;11.012;2024-03-25T00:46:24;6.0;;;3.7;;
13057;SDS011;6595;49.578;11.012;2024-03-25T00:48:23;7.0;;;4.1;;
13057;SDS011;6595;49.578;11.012;2024-03-25T00:50:23;7.0;;;4.1;;
13057;SDS011;6595;49.578;11.012;2024-03-25T00:52:24;5.8;;;3.6;;
13057;SDS011;6595;49.578;11.012;2024-03-25T00:54:23;7.4;;;4.3;;
13057;SDS011;6595;49.578;11.012;2024-03-25T00:56:23;6.2;;;4.1;;
13057;SDS011;6595;49.578;11.012;2024-03-25T00:58:23;6.2;;;4.1;;
13057;SDS011;6595;49.578;11.012;2024-03-25T01:00:24;6.4;;;4.0;;
13057;SDS011;6595;49.578;11.012;2024-03-25T01:02:23;6.4;;;4.0;;
13057;SDS011;6595;49.578;11.012;2024-03-25T01:04:23;6.1;;;4.2;;
13057;SDS011;6595;49.578;11.012;2024-03-25T01:06:23;6.1;;;4.2;;
13057;SDS011;6595;49.578;11.012;2024-03-25T01:08:23;7.2;;;4.0;;
13057;SDS011;6595;49.578;11.012;2024-03-25T01:10:24;7.2;;;4.0;;
13057;SDS011;6595;49.578;11.012;2024-03-25T01:12:23;6.5;;;3.9;;
13057;SDS011;6595;49.578;11.012;2024-03-25T01:14:23;7.7;;;4.0;;
13057;SDS011;6595;49.578;11.012;2024-03-25T01:16:24;8.6;;;4.3;;
13057;SDS011;6595;49.578;11.012;2024-03-25T01:18:24;6.0;;;3.9;;
13057;SDS011;6595;49.578;11.012;2024-03-25T01:20:23;6.0;;;3.9;;
13057;SDS011;6595;49.578;11.012;2024-03-25T01:22:23;6.0;;;3.9;;
13057;SDS011;6595;49.578;11.012;2024-03-25T01:24:23;7.0;;;4.0;;
13057;SDS011;6595;49.578;11.012;2024-03-25T01:26:23;7.6;;;3.9;;
13057;SDS011;6595;49.578;11.012;2024-03-25T01:28:23;8.7;;;3.9;;
13057;SDS011;6595;49.578;11.012;2024-03-25T01:30:24;8.7;;;3.9;;
13057;SDS011;6595;49.578;11.012;2024-03-25T01:32:24;9.0;;;4.1;;
13057;SDS011;6595;49.578;11.012;2024-03-25T01:34:23;7.5;;;4.0;;
13057;SDS011;6595;49.578;11.012;2024-03-25T01:36:23;6.2;;;3.7;;
13057;SDS011;6595;49.578;11.012;2024-03-25T01:38:24;5.7;;;3.8;;
13057;SDS011;6595;49.578;11.012;2024-03-25T01:40:23;5.7;;;3.8;;
13057;SDS011;6595;49.578;11.012;2024-03-25T01:42:23;8.4;;;4.1;;
13057;SDS011;6595;49.578;11.012;2024-03-25T01:44:24;5.9;;;4.0;;
13057;SDS011;6595;49.578;11.012;2024-03-25T01:46:23;7.7;;;4.0;;
13057;SDS011;6595;49.578;11.012;2024-03-25T01:48:24;7.7;;;4.0;;
13057;SDS011;6595;49.578;11.012;2024-03-25T01:50:23;6.8;;;3.9;;
13057;SDS011;6595;49.578;11.012;2024-03-25T01:52:23;7.8;;;4.3;;
13057;SDS011;6595;49.578;11.012;2024-03-25T01:54:23;7.8;;;4.3;;
13057;SDS011;6595;49.578;11.012;2024-03-25T01:56:23;7.2;;;4.0;;
13057;SDS011;6595;49.578;11.012;2024-03-25T01:58:24;7.2;;;4.0;;
13057;SDS011;6595;49.578;11.012;2024-03-25T02:00:23;7.0;;;4.4;;
13057;SDS011;6595;49.578;11.012;2024-03-25T02:02:23;6.9;;;4.1;;
13057;SDS011;6595;49.578;11.012;2024-03-25T02:04:24;6.2;;;3.9;;
13057;SDS011;6595;49.578;11.012;2024-03-25T02:06:24;7.2;;;3.9;;
13057;SDS011;6595;49.578;11.012;2024-03-25T02:08:23;7.2;;;3.9;;
13057;SDS011;6595;49.578;11.012;2024-03-25T02:10:23;7.6;;;4.0;;
13057;SDS011;6595;49.578;11.012;2024-03-25T02:12:24;6.7;;;4.2;;
13057;SDS011;6595;49.578;11.012;2024-03-25T02:14:24;8.3;;;4.1;;
13057;SDS011;6595;49.578;11.012;2024-03-25T02:16:23;6.6;;;3.9;;
13057;SDS011;6595;49.578;11.012;2024-03-25T02:18:23;6.6;;;3.9;;
13057;SDS011;6595;49.578;11.012;2024-03-25T02:20:24;5.8;;;4.2;;
13057;SDS011;6595;49.578;11.012;2024-03-25T02:22:23;8.5;;;4.0;;
13057;SDS011;6595;49.578;11.012;2024-03-25T02:24:23;8.5;;;4.0;;
13057;SDS011;6595;49.578;11.012;2024-03-25T02:26:23;7.3;;;3.9;;
13057;SDS011;6595;49.578;11.012;2024-03-25T02:28:24;6.2;;;4.1;;
13057;SDS011;6595;49.578;11.012;2024-03-25T02:30:24;8.3;;;4.1;;
13057;SDS011;6595;49.578;11.012;2024-03-25T02:32:23;6.3;;;4.1;;
13057;SDS011;6595;49.578;11.012;2024-03-25T02:34:23;8.2;;;4.2;;
13057;SDS011;6595;49.578;11.012;2024-03-25T02:36:24;8.2;;;4.2;;
13057;SDS011;6595;49.578;11.012;2024-03-25T02:38:23;6.7;;;4.0;;
13057;SDS011;6595;49.578;11.012;2024-03-25T02:40:23;6.3;;;3.7;;
13057;SDS011;6595;49.578;11.012;2024-03-25T02:42:24;6.0;;;3.9;;
13057;SDS011;6595;49.578;11.012;2024-03-25T02:44:24;7.4;;;4.1;;
13057;SDS011;6595;49.578;11.012;2024-03-25T02:46:24;7.4;;;4.1;;
13057;SDS011;6595;49.578;11.012;2024-03-25T02:48:23;7.9;;;4.2;;
13057;SDS011;6595;49.578;11.012;2024-03-25T02:50:23;8.9;;;3.6;;
13057;SDS011;6595;49.578;11.012;2024-03-25T02:52:23;6.2;;;3.6;;
13057;SDS011;6595;49.578;11.012;2024-03-25T02:54:24;8.4;;;4.0;;
13057;SDS011;6595;49.578;11.012;2024-03-25T02:56:23;8.4;;;4.0;;
13057;SDS011;6595;49.578;11.012;2024-03-25T02:58:23;7.8;;;4.0;;
13057;SDS011;6595;49.578;11.012;2024-03-25T03:00:23;6.1;;;3.9;;
13057;SDS011;6595;49.578;11.012;2024-03-25T03:02:23;7.0;;;4.1;;
13057;SDS011;6595;49.578;11.012;2024-03-25T03:04:24;7.0;;;4.1;;
13057;SDS011;6595;49.578;11.012;2024-03-25T03:06:24;5.8;;;3.9;;
13057;SDS011;6595;49.578;11.012;2024-03-25T03:08:23;6.6;;;3.8;;
13057;SDS011;6595;49.578;11.012;2024-03-25T03:10:23;9.6;;;4.0;;
13057;SDS011;6595;49.578;11.012;2024-03-25T03:12:23;9.6;;;4.0;;
13057;SDS011;6595;49.578;11.012;2024-03-25T03:14:24;7.8;;;4.0;;
13057;SDS011;6595;49.578;11.012;2024-03-25T03:16:23;7.2;;;3.8;;
13057;SDS011;6595;49.578;11.012;2024-03-25T03:18:23;6.1;;;3.9;;
13057;SDS011;6595;49.578;11.012;2024-03-25T03:20:23;8.3;;;4.3;;
13057;SDS011;6595;49.578;11.012;2024-03-25T03:22:24;6.2;;;3.7;;
13057;SDS011;6595;49.578;11.012;2024-03-25T03:24:23;6.2;;;3.7;;
13057;SDS011;6595;49.578;11.012;2024-03-25T03:26:23;8.2;;;4.3;;
13057;SDS011;6595;49.578;11.012;2024-03-25T03:28:23;9.0;;;4.4;;
13057;SDS011;6595;49.578;11.012;2024-03-25T03:30:24;7.9;;;4.5;;
13057;SDS011;6595;49.578;11.012;2024-03-25T03:32:24;6.7;;;3.9;;
13057;SDS011;6595;49.578;11.012;2024-03-25T03:34:23;6.7;;;3.9;;
13057;SDS011;6595;49.578;11.012;2024-03-25T03:36:23;6.7;;;3.9;;
13057;SDS011;6595;49.578;11.012;2024-03-25T03:38:23;7.6;;;4.2;;
13057;SDS011;6595;49.578;11.012;2024-03-25T03:40:24;7.6;;;4.2;;
13057;SDS011;6595;49.578;11.012;2024-03-25T03:42:24;7.3;;;4.4;;
13057;SDS011;6595;49.578;11.012;2024-03-25T03:44:24;7.3;;;4.4;;
13057;SDS011;6595;49.578;11.012;2024-03-25T03:46:23;7.3;;;4.1;;
13057;SDS011;6595;49.578;11.012;2024-03-25T03:48:23;8.1;;;4.4;;
13057;SDS011;6595;49.578;11.012;2024-03-25T03:50:23;7.8;;;4.3;;
13057;SDS011;6595;49.578;11.012;2024-03-25T03:52:23;6.7;;;4.3;;
13057;SDS011;6595;49.578;11.012;2024-03-25T03:54:24;6.7;;;4.3;;
13057;SDS011;6595;49.578;11.012;2024-03-25T03:56:23;8.7;;;4.7;;
13057;SDS011;6595;49.578;11.012;2024-03-25T03:58:24;9.4;;;5.1;;
13057;SDS011;6595;49.578;11.012;2024-03-25T04:00:23;8.5;;;5.0;;
13057;SDS011;6595;49.578;11.012;2024-03-25T04:02:23;8.8;;;4.6;;
13057;SDS011;6595;49.578;11.012;2024-03-25T04:04:23;8.8;;;4.6;;
13057;SDS011;6595;49.578;11.012;2024-03-25T04:06:24;9.5;;;4.8;;
13057;SDS011;6595;49.578;11.012;2024-03-25T04:08:24;10.7;;;5.0;;
13057;SDS011;6595;49.578;11.012;2024-03-25T04:10:23;8.3;;;5.2;;
13057;SDS011;6595;49.578;11.012;2024-03-25T04:12:23;8.3;;;5.2;;
13057;SDS011;6595;49.578;11.012;2024-03-25T04:14:23;9.7;;;5.1;;
13057;SDS011;6595;49.578;11.012;2024-03-25T04:16:24;9.3;;;5.0;;
13057;SDS011;6595;49.578;11.012;2024-03-25T04:18:23;9.3;;;5.3;;
13057;SDS011;6595;49.578;11.012;2024-03-25T04:20:23;7.6;;;4.8;;
13057;SDS011;6595;49.578;11.012;2024-03-25T04:22:23;7.6;;;4.8;;
13057;SDS011;6595;49.578;11.012;2024-03-25T04:24:23;9.2;;;5.1;;
13057;SDS011;6595;49.578;11.012;2024-03-25T04:26:24;10.3;;;5.2;;
13057;SDS011;6595;49.578;11.012;2024-03-25T04:28:24;8.1;;;5.3;;
13057;SDS011;6595;49.578;11.012;2024-03-25T04:30:24;9.1;;;5.1;;
13057;SDS011;6595;49.578;11.012;2024-03-25T04:32:23;9.1;;;5.1;;
13057;SDS011;6595;49.578;11.012;2024-03-25T04:34:23;8.9;;;5.0;;
13057;SDS011;6595;49.578;11.012;2024-03-25T04:36:23;10.4;;;5.2;;
13057;SDS011;6595;49.578;11.012;2024-03-25T04:38:23;11.8;;;5.4;;
13057;SDS011;6595;49.578;11.012;2024-03-25T04:40:24;11.8;;;5.4;;
13057;SDS011;6595;49.578;11.012;2024-03-25T04:42:23;9.2;;;4.7;;
13057;SDS011;6595;49.578;11.012;2024-03-25T04:44:23;9.4;;;5.2;;
13057;SDS011;6595;49.578;11.012;2024-03-25T04:46:23;10.4;;;5.4;;
13057;SDS011;6595;49.578;11.012;2024-03-25T04:48:23;10.4;;;5.4;;
13057;SDS011;6595;49.578;11.012;2024-03-25T04:50:23;8.8;;;5.7;;
13057;SDS011;6595;49.578;11.012;2024-03-25T04:52:23;8.8;;;5.7;;
13057;SDS011;6595;49.578;11.012;2024-03-25T04:54:23;7.4;;;5.4;;
13057;SDS011;6595;49.578;11.012;2024-03-25T04:56:23;10.7;;;5.3;;
13057;SDS011;6595;49.578;11.012;2024-03-25T04:58:24;9.1;;;5.0;;
13057;SDS011;6595;49.578;11.012;2024-03-25T05:00:24;9.2;;;5.1;;
13057;SDS011;6595;49.578;11.012;2024-03-25T05:02:23;9.2;;;5.1;;
13057;SDS011;6595;49.578;11.012;2024-03-25T05:04:23;8.0;;;5.4;;
13057;SDS011;6595;49.578;11.012;2024-03-25T05:06:24;9.5;;;5.0;;
13057;SDS011;6595;49.578;11.012;2024-03-25T05:08:23;9.5;;;5.0;;
13057;SDS011;6595;49.578;11.012;2024-03-25T05:10:23;9.1;;;5.0;;
13057;SDS011;6595;49.578;11.012;2024-03-25T05:12:24;7.6;;;4.7;;
13057;SDS011;6595;49.578;11.012;2024-03-25T05:14:23;6.7;;;4.6;;
13057;SDS011;6595;49.578;11.012;2024-03-25T05:16:23;7.7;;;4.7;;
13057;SDS011;6595;49.578;11.012;2024-03-25T05:18:23;8.7;;;4.7;;
13057;SDS011;6595;49.578;11.012;2024-03-25T05:20:23;8.7;;;4.7;;
13057;SDS011;6595;49.578;11.012;2024-03-25T05:22:24;7.7;;;4.6;;
13057;SDS011;6595;49.578;11.012;2024-03-25T05:24:23;10.0;;;4.9;;
13057;SDS011;6595;49.578;11.012;2024-03-25T05:26:23;8.5;;;4.4;;
13057;SDS011;6595;49.578;11.012;2024-03-25T05:28:23;8.5;;;4.4;;
13057;SDS011;6595;49.578;11.012;2024-03-25T05:30:24;8.4;;;4.4;;
13057;SDS011;6595;49.578;11.012;2024-03-25T05:32:23;9.6;;;4.9;;
13057;SDS011;6595;49.578;11.012;2024-03-25T05:34:24;9.1;;;4.7;;
13057;SDS011;6595;49.578;11.012;2024-03-25T05:36:23;8.4;;;4.9;;
13057;SDS011;6595;49.578;11.012;2024-03-25T05:38:23;8.4;;;4.9;;
13057;SDS011;6595;49.578;11.012;2024-03-25T05:40:23;8.1;;;4.9;;
13057;SDS011;6595;49.578;11.012;2024-03-25T05:42:23;8.8;;;4.7;;
13057;SDS011;6595;49.578;11.012;2024-03-25T05:44:23;9.4;;;5.4;;
13057;SDS011;6595;49.578;11.012;2024-03-25T05:46:23;11.0;;;4.9;;
13057;SDS011;6595;49.578;11.012;2024-03-25T05:48:24;11.0;;;4.9;;
13057;SDS011;6595;49.578;11.012;2024-03-25T05:50:24;8.2;;;4.9;;
13057;SDS011;6595;49.578;11.012;2024-03-25T05:52:23;8.3;;;4.5;;
13057;SDS011;6595;49.578;11.012;2024-03-25T05:54:23;9.6;;;5.0;;
13057;SDS011;6595;49.578;11.012;2024-03-25T05:56:24;11.5;;;4.9;;
13057;SDS011;6595;49.578;11.012;2024-03-25T05:58:24;11.5;;;4.9;;
13057;SDS011;6595;49.578;11.012;2024-03-25T06:00:23;10.2;;;5.1;;
13057;SDS011;6595;49.578;11.012;2024-03-25T06:02:23;9.2;;;4.4;;
13057;SDS011;6595;49.578;11.012;2024-03-25T06:04:23;9.8;;;4.6;;
13057;SDS011;6595;49.578;11.012;2024-03-25T06:06:24;9.7;;;4.8;;
13057;SDS011;6595;49.578;11.012;2024-03-25T06:08:23;9.7;;;4.8;;
13057;SDS011;6595;49.578;11.012;2024-03-25T06:10:23;10.5;;;4.5;;
13057;SDS011;6595;49.578;11.012;2024-03-25T06:12:23;9.4;;;4.5;;
13057;SDS011;6595;49.578;11.012;2024-03-25T06:14:24;9.0;;;4.7;;
13057;SDS011;6595;49.578;11.012;2024-03-25T06:16:23;9.0;;;4.7;;
13057;SDS011;6595;49.578;11.012;2024-03-25T06:18:23;10.1;;;4.5;;
13057;SDS011;6595;49.578;11.012;2024-03-25T06:20:24;9.1;;;4.8;;
13057;SDS011;6595;49.578;11.012;2024-03-25T06:22:24;10.2;;;4.6;;
13057;SDS011;6595;49.578;11.012;2024-03-25T06:24:23;9.3;;;4.5;;
13057;SDS011;6595;49.578;11.012;2024-03-25T06:26:23;9.3;;;4.5;;
13057;SDS011;6595;49.578;11.012;2024-03-25T06:28:23;9.2;;;4.5;;
13057;SDS011;6595;49.578;11.012;2024-03-25T06:30:24;7.3;;;4.0;;
13057;SDS011;6595;49.578;11.012;2024-03-25T06:32:23;9.7;;;4.3;;
13057;SDS011;6595;49.578;11.012;2024-03-25T06:34:23;8.8;;;4.2;;
13057;SDS011;6595;49.578;11.012;2024-03-25T06:36:23;8.8;;;4.2;;
13057;SDS011;6595;49.578;11.012;2024-03-25T06:38:23;8.7;;;4.1;;
13057;SDS011;6595;49.578;11.012;2024-03-25T06:40:24;8.4;;;3.8;;
13057;SDS011;6595;49.578;11.012;2024-03-25T06:42:24;7.9;;;4.4;;
13057;SDS011;6595;49.578;11.012;2024-03-25T06:44:23;9.1;;;4.1;;
13057;SDS011;6595;49.578;11.012;2024-03-25T06:46:23;9.1;;;4.1;;
13057;SDS011;6595;49.578;11.012;2024-03-25T06:48:24;7.2;;;3.7;;
13057;SDS011;6595;49.578;11.012;2024-03-25T06:50:23;7.1;;;3.9;;
13057;SDS011;6595;49.578;11.012;2024-03-25T06:52:23;6.5;;;3.6;;
13057;SDS011;6595;49.578;11.012;2024-03-25T06:54:24;7.3;;;4.1;;
13057;SDS011;6595;49.578;11.012;2024-03-25T06:56:23;7.3;;;4.1;;
13057;SDS011;6595;49.578;11.012;2024-03-25T06:58:23;6.7;;;3.9;;
13057;SDS011;6595;49.578;11.012;2024-03-25T07:00:23;6.9;;;3.2;;
13057;SDS011;6595;49.578;11.012;2024-03-25T07:02:24;6.1;;;3.5;;
13057;SDS011;6595;49.578;11.012;2024-03-25T07:04:23;8.5;;;4.0;;
13057;SDS011;6595;49.578;11.012;2024-03-25T07:06:23;8.5;;;4.0;;
13057;SDS011;6595;49.578;11.012;2024-03-25T07:08:24;6.2;;;3.7;;
13057;SDS011;6595;49.578;11.012;2024-03-25T07:10:24;9.0;;;3.9;;
13057;SDS011;6595;49.578;11.012;2024-03-25T07:12:24;5.9;;;3.6;;
13057;SDS011;6595;49.578;11.012;2024-03-25T07:14:23;5.9;;;3.6;;
13057;SDS011;6595;49.578;11.012;2024-03-25T07:16:23;6.6;;;3.5;;
13057;SDS011;6595;49.578;11.012;2024-03-25T07:18:23;6.8;;;3.4;;
13057;SDS011;6595;49.578;11.012;2024-03-25T07:20:24;6.8;;;3.4;;
13057;SDS011;6595;49.578;11.012;2024-03-25T07:22:24;8.2;;;3.6;;
13057;SDS011;6595;49.578;11.012;2024-03-25T07:24:23;8.2;;;3.6;;
13057;SDS011;6595;49.578;11.012;2024-03-25T07:26:23;6.7;;;3.3;;
13057;SDS011;6595;49.578;11.012;2024-03-25T07:28:23;8.9;;;3.9;;
13057;SDS011;6595;49.578;11.012;2024-03-25T07:30:23;5.5;;;3.3;;
13057;SDS011;6595;49.578;11.012;2024-03-25T07:32:23;9.6;;;3.7;;
13057;SDS011;6595;49.578;11.012;2024-03-25T07:34:23;9.6;;;3.7;;
13057;SDS011;6595;49.578;11.012;2024-03-25T07:36:23;6.8;;;3.3;;
13057;SDS011;6595;49.578;11.012;2024-03-25T07:38:23;7.0;;;3.5;;
13057;SDS011;6595;49.578;11.012;2024-03-25T07:40:23;6.3;;;3.6;;
13057;SDS011;6595;49.578;11.012;2024-03-25T07:42:24;6.3;;;3.6;;
13057;SDS011;6595;49.578;11.012;2024-03-25T07:44:23;10.6;;;4.1;;
13057;SDS011;6595;49.578;11.012;2024-03-25T07:46:23;6.9;;;3.7;;
13057;SDS011;6595;49.578;11.012;2024-03-25T07:48:24;7.8;;;3.8;;
13057;SDS011;6595;49.578;11.012;2024-03-25T07:50:23;6.6;;;3.4;;
13057;SDS011;6595;49.578;11.012;2024-03-25T07:52:23;6.6;;;3.4;;
13057;SDS011;6595;49.578;11.012;2024-03-25T07:54:23;6.2;;;3.2;;
13057;SDS011;6595;49.578;11.012;2024-03-25T07:56:24;6.1;;;2.8;;
13057;SDS011;6595;49.578;11.012;2024-03-25T07:58:23;7.6;;;3.2;;
13057;SDS011;6595;49.578;11.012;2024-03-25T08:00:23;15.3;;;3.6;;
13057;SDS011;6595;49.578;11.012;2024-03-25T08:02:23;9.0;;;2.9;;
13057;SDS011;6595;49.578;11.012;2024-03-25T08:04:23;9.0;;;2.9;;
13057;SDS011;6595;49.578;11.012;2024-03-25T08:06:23;7.9;;;3.2;;
13057;SDS011;6595;49.578;11.012;2024-03-25T08:08:23;5.5;;;2.7;;
13057;SDS011;6595;49.578;11.012;2024-03-25T08:10:23;7.2;;;2.6;;
13057;SDS011;6595;49.578;11.012;2024-03-25T08:12:24;7.2;;;2.6;;
13057;SDS011;6595;49.578;11.012;2024-03-25T08:14:23;8.9;;;3.0;;
13057;SDS011;6595;49.578;11.012;2024-03-25T08:16:23;9.9;;;2.9;;
13057;SDS011;6595;49.578;11.012;2024-03-25T08:18:24;10.0;;;3.1;;
13057;SDS011;6595;49.578;11.012;2024-03-25T08:20:23;7.5;;;3.1;;
13057;SDS011;6595;49.578;11.012;2024-03-25T08:22:23;9.0;;;2.7;;
13057;SDS011;6595;49.578;11.012;2024-03-25T08:24:24;9.0;;;2.7;;
13057;SDS011;6595;49.578;11.012;2024-03-25T08:26:23;6.1;;;3.1;;
13057;SDS011;6595;49.578;11.012;2024-03-25T08:28:23;6.9;;;2.9;;
13057;SDS011;6595;49.578;11.012;2024-03-25T08:30:23;6.0;;;2.5;;
13057;SDS011;6595;49.578;11.012;2024-03-25T08:32:24;6.0;;;2.5;;
13057;SDS011;6595;49.578;11.012;2024-03-25T08:34:23;6.0;;;2.6;;
13057;SDS011;6595;49.578;11.012;2024-03-25T08:36:23;6.8;;;3.0;;
13057;SDS011;6595;49.578;11.012;2024-03-25T08:38:24;5.2;;;2.9;;
13057;SDS011;6595;49.578;11.012;2024-03-25T08:40:24;7.1;;;2.8;;
13057;SDS011;6595;49.578;11.012;2024-03-25T08:42:23;7.1;;;2.8;;
13057;SDS011;6595;49.578;11.012;2024-03-25T08:44:23;4.5;;;2.6;;
13057;SDS011;6595;49.578;11.012;2024-03-25T08:46:24;7.1;;;2.7;;
13057;SDS011;6595;49.578;11.012;2024-03-25T08:48:23;6.1;;;2.8;;
13057;SDS011;6595;49.578;11.012;2024-03-25T08:50:23;6.1;;;2.8;;
13057;SDS011;6595;49.578;11.012;2024-03-25T08:52:24;5.5;;;3.0;;
13057;SDS011;6595;49.578;11.012;2024-03-25T08:54:23;6.4;;;2.9;;
13057;SDS011;6595;49.578;11.012;2024-03-25T08:56:23;6.0;;;2.4;;
13057;SDS011;6595;49.578;11.012;2024-03-25T08:58:23;5.4;;;2.5;;
13057;SDS011;6595;49.578;11.012;2024-03-25T09:00:24;5.4;;;2.5;;
13057;SDS011;6595;49.578;11.012;2024-03-25T09:02:23;6.1;;;2.8;;
13057;SDS011;6595;49.578;11.012;2024-03-25T09:04:23;6.5;;;2.6;;
13057;SDS011;6595;49.578;11.012;2024-03-25T09:06:24;6.7;;;2.7;;
13057;SDS011;6595;49.578;11.012;2024-03-25T09:08:24;6.6;;;3.0;;
13057;SDS011;6595;49.578;11.012;2024-03-25T09:10:23;6.6;;;3.0;;
13057;SDS011;6595;49.578;11.012;2024-03-25T09:12:24;7.0;;;2.8;;
13057;SDS011;6595;49.578;11.012;2024-03-25T09:14:23;6.1;;;2.7;;
13057;SDS011;6595;49.578;11.012;2024-03-25T09:16:23;4.4;;;2.8;;
13057;SDS011;6595;49.578;11.012;2024-03-25T09:18:23;4.4;;;2.8;;
13057;SDS011;6595;49.578;11.012;2024-03-25T09:20:23;4.9;;;2.9;;
13057;SDS011;6595;49.578;11.012;2024-03-25T09:22:23;8.2;;;2.7;;
13057;SDS011;6595;49.578;11.012;2024-03-25T09:24:23;4.6;;;2.6;;
13057;SDS011;6595;49.578;11.012;2024-03-25T09:26:24;6.4;;;2.1;;
13057;SDS011;6595;49.578;11.012;2024-03-25T09:28:23;4.5;;;1.8;;
13057;SDS011;6595;49.578;11.012;2024-03-25T09:30:23;4.5;;;1.8;;
13057;SDS011;6595;49.578;11.012;2024-03-25T09:32:23;3.9;;;1.9;;
13057;SDS011;6595;49.578;11.012;2024-03-25T09:34:24;4.8;;;1.9;;
13057;SDS011;6595;49.578;11.012;2024-03-25T09:36:23;4.8;;;1.9;;
13057;SDS011;6595;49.578;11.012;2024-03-25T09:38:23;8.7;;;2.9;;
13057;SDS011;6595;49.578;11.012;2024-03-25T09:40:24;8.7;;;2.9;;
13057;SDS011;6595;49.578;11.012;2024-03-25T09:42:25;3.5;;;2.2;;
13057;SDS011;6595;49.578;11.012;2024-03-25T09:44:24;6.5;;;2.2;;
13057;SDS011;6595;49.578;11.012;2024-03-25T09:46:23;5.5;;;2.1;;
13057;SDS011;6595;49.578;11.012;2024-03-25T09:48:23;9.8;;;2.4;;
13057;SDS011;6595;49.578;11.012;2024-03-25T09:50:23;9.8;;;2.4;;
13057;SDS011;6595;49.578;11.012;2024-03-25T09:52:23;4.5;;;1.9;;
13057;SDS011;6595;49.578;11.012;2024-03-25T09:54:24;4.2;;;2.1;;
13057;SDS011;6595;49.578;11.012;2024-03-25T09:56:23;5.9;;;2.3;;
13057;SDS011;6595;49.578;11.012;2024-03-25T09:58:24;3.9;;;1.8;;
13057;SDS011;6595;49.578;11.012;2024-03-25T10:00:24;3.9;;;1.8;;
13057;SDS011;6595;49.578;11.012;2024-03-25T10:02:23;6.1;;;3.0;;
13057;SDS011;6595;49.578;11.012;2024-03-25T10:04:23;4.0;;;2.2;;
13057;SDS011;6595;49.578;11.012;2024-03-25T10:06:23;5.7;;;2.1;;
13057;SDS011;6595;49.578;11.012;2024-03-25T10:08:23;5.7;;;2.1;;
13057;SDS011;6595;49.578;11.012;2024-03-25T10:10:24;3.9;;;2.3;;
13057;SDS011;6595;49.578;11.012;2024-03-25T10:12:23;5.4;;;2.3;;
13057;SDS011;6595;49.578;11.012;2024-03-25T10:14:23;4.1;;;1.9;;
13057;SDS011;6595;49.578;11.012;2024-03-25T10:16:24;4.9;;;2.3;;
13057;SDS011;6595;49.578;11.012;2024-03-25T10:18:23;4.9;;;2.3;;
13057;SDS011;6595;49.578;11.012;2024-03-25T10:20:23;3.4;;;1.9;;
13057;SDS011;6595;49.578;11.012;2024-03-25T10:22:23;5.2;;;2.2;;
13057;SDS011;6595;49.578;11.012;2024-03-25T10:24:24;4.8;;;2.6;;
13057;SDS011;6595;49.578;11.012;2024-03-25T10:26:25;4.8;;;2.6;;
13057;SDS011;6595;49.578;11.012;2024-03-25T10:28:23;3.8;;;2.3;;
13057;SDS011;6595;49.578;11.012;2024-03-25T10:30:24;5.2;;;2.2;;
13057;SDS011;6595;49.578;11.012;2024-03-25T10:32:23;5.4;;;2.6;;
13057;SDS011;6595;49.578;11.012;2024-03-25T10:34:23;4.6;;;2.4;;
13057;SDS011;6595;49.578;11.012;2024-03-25T10:36:23;4.6;;;2.4;;
13057;SDS011;6595;49.578;11.012;2024-03-25T10:38:23;4.1;;;2.0;;
13057;SDS011;6595;49.578;11.012;2024-03-25T10:40:23;3.8;;;2.3;;
13057;SDS011;6595;49.578;11.012;2024-03-25T10:42:23;5.2;;;2.3;;
13057;SDS011;6595;49.578;11.012;2024-03-25T10:44:23;8.4;;;2.5;;
13057;SDS011;6595;49.578;11.012;2024-03-25T10:46:23;6.9;;;2.7;;
13057;SDS011;6595;49.578;11.012;2024-03-25T10:48:25;6.9;;;2.7;;
13057;SDS011;6595;49.578;11.012;2024-03-25T10:50:24;7.3;;;2.4;;
13057;SDS011;6595;49.578;11.012;2024-03-25T10:52:24;5.0;;;2.3;;
13057;SDS011;6595;49.578;11.012;2024-03-25T10:54:23;5.3;;;2.3;;
13057;SDS011;6595;49.578;11.012;2024-03-25T10:56:24;5.3;;;2.3;;
13057;SDS011;6595;49.578;11.012;2024-03-25T10:58:23;6.8;;;2.4;;
13057;SDS011;6595;49.578;11.012;2024-03-25T11:00:24;3.8;;;2.2;;
13057;SDS011;6595;49.578;11.012;2024-03-25T11:02:23;4.8;;;2.5;;
13057;SDS011;6595;49.578;11.012;2024-03-25T11:04:23;4.8;;;2.5;;
13057;SDS011;6595;49.578;11.012;2024-03-25T11:06:23;5.7;;;2.7;;
13057;SDS011;6595;49.578;11.012;2024-03-25T11:08:30;4.8;;;2.4;;
13057;SDS011;6595;49.578;11.012;2024-03-25T11:10:28;4.1;;;2.2;;
13057;SDS011;6595;49.578;11.012;2024-03-25T11:12:23;5.7;;;2.5;;
13057;SDS011;6595;49.578;11.012;2024-03-25T11:14:24;4.5;;;2.0;;
13057;SDS011;6595;49.578;11.012;2024-03-25T11:16:28;4.5;;;2.0;;
13057;SDS011;6595;49.578;11.012;2024-03-25T11:18:23;4.4;;;2.2;;
13057;SDS011;6595;49.578;11.012;2024-03-25T11:20:23;4.7;;;2.2;;
13057;SDS011;6595;49.578;11.012;2024-03-25T11:22:24;6.2;;;2.2;;
13057;SDS011;6595;49.578;11.012;2024-03-25T11:24:26;6.2;;;2.2;;
13057;SDS011;6595;49.578;11.012;2024-03-25T11:26:24;2.8;;;1.8;;
13057;SDS011;6595;49.578;11.012;2024-03-25T11:28:27;4.4;;;2.3;;
13057;SDS011;6595;49.578;11.012;2024-03-25T11:30:23;4.5;;;2.9;;
13057;SDS011;6595;49.578;11.012;2024-03-25T11:32:23;4.8;;;2.2;;
13057;SDS011;6595;49.578;11.012;2024-03-25T11:34:24;4.8;;;2.2;;
13057;SDS011;6595;49.578;11.012;2024-03-25T11:36:23;5.1;;;2.4;;
13057;SDS011;6595;49.578;11.012;2024-03-25T11:38:23;4.4;;;2.2;;
13057;SDS011;6595;49.578;11.012;2024-03-25T11:40:23;4.4;;;2.2;;
13057;SDS011;6595;49.578;11.012;2024-03-25T11:42:23;4.2;;;2.1;;
13057;SDS011;6595;49.578;11.012;2024-03-25T11:44:24;4.8;;;2.2;;
13057;SDS011;6595;49.578;11.012;2024-03-25T11:46:24;4.1;;;2.2;;
13057;SDS011;6595;49.578;11.012;2024-03-25T11:48:23;3.9;;;2.2;;
13057;SDS011;6595;49.578;11.012;2024-03-25T11:50:23;4.3;;;2.2;;
13057;SDS011;6595;49.578;11.012;2024-03-25T11:52:23;5.2;;;2.3;;
13057;SDS011;6595;49.578;11.012;2024-03-25T11:54:25;5.2;;;2.3;;
13057;SDS011;6595;49.578;11.012;2024-03-25T11:56:23;3.6;;;2.2;;
13057;SDS011;6595;49.578;11.012;2024-03-25T11:58:23;3.9;;;2.4;;
13057;SDS011;6595;49.578;11.012;2024-03-25T12:00:23;4.1;;;2.1;;
13057;SDS011;6595;49.578;11.012;2024-03-25T12:02:24;4.1;;;2.1;;
13057;SDS011;6595;49.578;11.012;2024-03-25T12:04:24;5.0;;;2.3;;
13057;SDS011;6595;49.578;11.012;2024-03-25T12:06:23;5.5;;;2.4;;
13057;SDS011;6595;49.578;11.012;2024-03-25T12:08:23;4.1;;;2.1;;
13057;SDS011;6595;49.578;11.012;2024-03-25T12:10:24;4.1;;;2.1;;
13057;SDS011;6595;49.578;11.012;2024-03-25T12:12:23;4.4;;;2.2;;
13057;SDS011;6595;49.578;11.012;2024-03-25T12:14:23;4.4;;;2.2;;
13057;SDS011;6595;49.578;11.012;2024-03-25T12:16:23;3.7;;;2.1;;
13057;SDS011;6595;49.578;11.012;2024-03-25T12:18:24;3.8;;;2.3;;
13057;SDS011;6595;49.578;11.012;2024-03-25T12:20:23;3.8;;;2.3;;
13057;SDS011;6595;49.578;11.012;2024-03-25T12:22:24;3.5;;;2.2;;
13057;SDS011;6595;49.578;11.012;2024-03-25T12:24:23;3.5;;;2.2;;